Time;durP1;ratioP1;P1;durP2;ratioP2;P2;SDS_P1;SDS_P2;PMS_P1;PMS_P2;Temp;Humidity;BMP_temperature;BMP_pressure;BME280_temperature;BME280_humidity;BME280_pressure;Samples;Min_cycle;Max_cycle;Signal;HPM_P1;HPM_P2
2022/09/29 00:02:48;;;;;;;20.97;8.97;;;;;7.50;94860.00;;;;8299269;28;20659;-67
2022/09/29 00:06:57;;;;;;;30.90;11.07;;;;;7.70;94864.00;;;;8300477;28;20224;-67
2022/09/29 00:11:10;;;;;;;35.47;11.83;;;;;7.80;94854.00;;;;8299076;28;20229;-67
2022/09/29 00:15:19;;;;;;;35.97;13.17;;;;;8.00;94847.00;;;;8298838;28;20218;-68
2022/09/29 00:19:24;;;;;;;44.07;13.60;;;;;8.20;94860.00;;;;8298754;28;20222;-67
2022/09/29 00:23:34;;;;;;;43.97;14.30;;;;;8.30;94857.00;;;;8298210;28;20218;-67
2022/09/29 00:27:37;;;;;;;88.63;16.40;;;;;8.50;94863.00;;;;8298884;28;20233;-67
2022/09/29 00:31:47;;;;;;;32.40;12.97;;;;;8.60;94863.00;;;;8297993;28;20233;-68
2022/09/29 00:36:00;;;;;;;51.03;15.20;;;;;8.60;94867.00;;;;8298582;28;20237;-68
2022/09/29 00:40:04;;;;;;;51.40;14.40;;;;;8.70;94867.00;;;;8298636;28;20600;-67
2022/09/29 00:45:07;;;;;;;41.50;12.90;;;;;8.70;94869.00;;;;8297910;28;20226;-67
2022/09/29 00:49:23;;;;;;;44.63;14.27;;;;;8.80;94862.00;;;;8196955;29;20228;-67
2022/09/29 00:53:34;;;;;;;52.63;15.53;;;;;8.90;94859.00;;;;8197557;29;20239;-67
2022/09/29 00:57:43;;;;;;;53.88;16.08;;;;;8.90;94858.00;;;;8197605;29;20272;-68
2022/09/29 01:01:53;;;;;;;52.57;16.40;;;;;8.90;94841.00;;;;8196842;29;20678;-68
2022/09/29 01:06:15;;;;;;;48.97;16.50;;;;;9.00;94853.00;;;;8215310;28;20282;-67
2022/09/29 01:10:26;;;;;;;44.27;16.53;;;;;9.00;94853.00;;;;8228559;28;20716;-67
2022/09/29 01:14:38;;;;;;;52.35;16.17;;;;;9.10;94849.00;;;;8228004;28;20274;-67
2022/09/29 01:18:47;;;;;;;54.33;17.17;;;;;9.10;94857.00;;;;8255002;28;20244;-67
2022/09/29 01:23:41;;;;;;;50.57;17.53;;;;;9.10;94862.00;;;;8296652;28;20221;-67
2022/09/29 01:28:21;;;;;;;53.50;16.20;;;;;9.10;94861.00;;;;8196388;28;20282;-67
2022/09/29 01:32:43;;;;;;;52.17;16.90;;;;;9.20;94861.00;;;;8195943;28;20224;-67
2022/09/29 01:37:00;;;;;;;50.83;15.97;;;;;9.20;94857.00;;;;8196527;29;20223;-67
2022/09/29 01:41:10;;;;;;;53.70;16.87;;;;;9.20;94863.00;;;;8196187;29;20228;-67
2022/09/29 01:45:25;;;;;;;49.07;17.20;;;;;9.20;94860.00;;;;8196439;29;20220;-68
2022/09/29 01:49:34;;;;;;;57.00;16.87;;;;;9.20;94862.00;;;;8195095;29;20223;-68
2022/09/29 01:53:48;;;;;;;64.32;17.27;;;;;9.20;94854.00;;;;8195900;29;20243;-68
2022/09/29 01:58:00;;;;;;;54.30;17.50;;;;;9.10;94842.00;;;;8195197;29;20230;-68
2022/09/29 02:02:14;;;;;;;53.33;15.97;;;;;9.10;94849.00;;;;8238282;28;20230;-69
2022/09/29 02:06:29;;;;;;;56.87;17.63;;;;;9.20;94845.00;;;;8295676;28;20222;-68
2022/09/29 02:10:45;;;;;;;53.03;17.70;;;;;9.10;94844.00;;;;8294302;28;20303;-68
2022/09/29 02:14:56;;;;;;;58.47;17.57;;;;;9.00;94847.00;;;;8293344;28;20280;-69
2022/09/29 02:19:10;;;;;;;46.53;16.10;;;;;8.90;94842.00;;;;8294988;28;20226;-68
2022/09/29 02:23:22;;;;;;;50.03;15.75;;;;;8.90;94850.00;;;;8270571;28;20217;-68
2022/09/29 02:27:27;;;;;;;66.47;17.97;;;;;8.80;94851.00;;;;8305903;28;20214;-69
2022/09/29 02:31:38;;;;;;;48.97;16.05;;;;;8.80;94846.00;;;;8306004;28;20567;-68
2022/09/29 02:35:48;;;;;;;62.23;17.07;;;;;8.80;94855.00;;;;8305085;28;20575;-68
2022/09/29 02:40:13;;;;;;;59.13;18.03;;;;;8.70;94853.00;;;;8305470;28;20222;-68
2022/09/29 02:44:41;;;;;;;94.13;20.40;;;;;8.70;94852.00;;;;8306339;28;20547;-68
2022/09/29 02:49:13;;;;;;;86.93;19.43;;;;;8.70;94855.00;;;;8306121;28;20217;-68
2022/09/29 02:53:33;;;;;;;97.63;19.17;;;;;8.70;94847.00;;;;8294938;28;20643;-68
2022/09/29 02:57:50;;;;;;;157.87;21.73;;;;;8.70;94851.00;;;;8306307;28;20220;-68
2022/09/29 03:01:59;;;;;;;236.52;22.67;;;;;8.70;94857.00;;;;8335480;23;20232;-69
2022/09/29 03:06:20;;;;;;;272.20;26.77;;;;;8.70;94853.00;;;;8343359;28;20266;-69
2022/09/29 03:10:29;;;;;;;479.13;33.83;;;;;8.70;94843.00;;;;8339371;28;20220;-69
2022/09/29 03:14:41;;;;;;;407.20;27.33;;;;;8.70;94844.00;;;;8354652;28;20228;-69
2022/09/29 03:18:50;;;;;;;245.77;24.23;;;;;8.60;94856.00;;;;8346792;28;20581;-68
2022/09/29 03:23:00;;;;;;;369.63;29.93;;;;;8.60;94861.00;;;;8355685;28;20231;-69
2022/09/29 03:27:10;;;;;;;237.40;25.80;;;;;8.60;94855.00;;;;8354748;28;20224;-69
2022/09/29 03:31:22;;;;;;;240.90;24.03;;;;;8.70;94852.00;;;;8347835;28;20593;-69
2022/09/29 03:35:31;;;;;;;232.57;23.73;;;;;8.70;94865.00;;;;8348391;28;20734;-70
2022/09/29 03:39:46;;;;;;;320.73;24.93;;;;;8.80;94858.00;;;;8344570;28;20224;-69
2022/09/29 03:43:55;;;;;;;211.18;21.63;;;;;8.80;94863.00;;;;8321586;28;20689;-68
2022/09/29 03:48:00;;;;;;;491.63;29.15;;;;;8.80;94856.00;;;;8337956;28;20221;-69
2022/09/29 03:52:09;;;;;;;588.73;36.17;;;;;8.80;94864.00;;;;8350056;28;20286;-69
2022/09/29 03:56:12;;;;;;;476.70;31.97;;;;;8.90;94867.00;;;;8350323;28;21015;-68
2022/09/29 04:00:22;;;;;;;628.30;35.90;;;;;8.90;94861.00;;;;8342654;28;20228;-69
2022/09/29 04:04:40;;;;;;;475.43;30.20;;;;;8.90;94858.00;;;;8348679;28;20232;-69
2022/09/29 04:08:50;;;;;;;336.17;24.63;;;;;8.90;94857.00;;;;8359958;28;20221;-69
2022/09/29 04:12:53;;;;;;;656.77;37.93;;;;;8.90;94863.00;;;;8350314;28;20221;-69
2022/09/29 04:17:03;;;;;;;495.57;28.63;;;;;8.80;94854.00;;;;8345908;28;20220;-69
2022/09/29 04:21:15;;;;;;;530.47;32.80;;;;;8.80;94853.00;;;;8358374;28;20236;-69
2022/09/29 04:25:25;;;;;;;596.07;36.17;;;;;8.70;94848.00;;;;8360765;28;20649;-68
2022/09/29 04:29:35;;;;;;;570.60;32.95;;;;;8.60;94844.00;;;;8347444;28;20235;-69
2022/09/29 04:33:45;;;;;;;460.87;30.33;;;;;8.50;94846.00;;;;8353619;28;20244;-68
2022/09/29 04:37:58;;;;;;;450.83;29.70;;;;;8.50;94853.00;;;;8354910;28;20732;-67
2022/09/29 04:42:01;;;;;;;240.17;22.67;;;;;8.60;94869.00;;;;8360851;28;20232;-68
2022/09/29 04:46:11;;;;;;;507.33;30.57;;;;;8.60;94860.00;;;;8361271;28;20235;-67
2022/09/29 04:50:21;;;;;;;420.97;28.63;;;;;8.60;94853.00;;;;8352684;28;20281;-68
2022/09/29 04:54:25;;;;;;;463.10;31.63;;;;;8.50;94854.00;;;;8351105;28;20229;-67
2022/09/29 04:58:39;;;;;;;675.73;39.70;;;;;8.50;94856.00;;;;8340020;28;20216;-68
2022/09/29 05:02:49;;;;;;;528.50;32.27;;;;;8.50;94849.00;;;;8357026;28;20240;-68
2022/09/29 05:06:59;;;;;;;221.40;21.13;;;;;8.50;94856.00;;;;8378486;28;20235;-68
2022/09/29 05:11:11;;;;;;;424.00;28.80;;;;;8.50;94869.00;;;;8364833;28;20221;-68
2022/09/29 05:15:20;;;;;;;361.87;25.03;;;;;8.40;94873.00;;;;8371084;28;20236;-68
2022/09/29 05:19:31;;;;;;;278.57;23.13;;;;;8.50;94876.00;;;;8376049;28;20653;-69
2022/09/29 05:23:41;;;;;;;497.70;30.35;;;;;8.50;94872.00;;;;8375791;28;20212;-68
2022/09/29 05:27:52;;;;;;;364.07;24.77;;;;;8.50;94877.00;;;;8376309;28;20224;-68
2022/09/29 05:32:01;;;;;;;223.13;20.50;;;;;8.50;94879.00;;;;8354539;28;20311;-68
2022/09/29 05:36:12;;;;;;;211.03;21.70;;;;;8.60;94871.00;;;;8376735;28;20237;-69
2022/09/29 05:40:16;;;;;;;220.40;21.20;;;;;8.70;94873.00;;;;8376277;28;20251;-69
2022/09/29 05:44:27;;;;;;;149.57;20.07;;;;;8.80;94884.00;;;;8378494;28;20231;-69
2022/09/29 05:48:37;;;;;;;164.67;25.87;;;;;9.00;94881.00;;;;8372267;28;20228;-68
2022/09/29 05:52:48;;;;;;;256.13;23.30;;;;;9.10;94888.00;;;;8368341;28;20239;-67
2022/09/29 05:56:51;;;;;;;151.77;20.20;;;;;9.10;94878.00;;;;8368341;28;20229;-67
2022/09/29 06:01:05;;;;;;;114.87;19.13;;;;;9.20;94883.00;;;;8364826;28;22249;-67
2022/09/29 06:05:15;;;;;;;267.00;26.80;;;;;9.30;94875.00;;;;8337776;28;20224;-68
2022/09/29 06:09:25;;;;;;;190.73;22.73;;;;;9.40;94884.00;;;;8333085;28;20293;-68
2022/09/29 06:13:29;;;;;;;93.80;19.52;;;;;9.50;94881.00;;;;8326664;28;20865;-68
2022/09/29 06:17:40;;;;;;;80.73;18.43;;;;;9.60;94883.00;;;;8327694;28;20232;-71
2022/09/29 06:21:49;;;;;;;78.90;18.23;;;;;9.70;94892.00;;;;8326819;28;20221;-70
2022/09/29 06:25:55;;;;;;;84.05;18.60;;;;;9.70;94891.00;;;;8325351;28;20746;-70
2022/09/29 06:30:07;;;;;;;80.32;20.27;;;;;9.60;94876.00;;;;8338593;28;20237;-70
2022/09/29 06:34:18;;;;;;;93.10;21.73;;;;;9.60;94878.00;;;;8328405;28;20234;-70
2022/09/29 06:38:27;;;;;;;90.18;20.90;;;;;9.60;94869.00;;;;8317567;28;20343;-69
2022/09/29 06:42:37;;;;;;;91.83;20.77;;;;;9.70;94875.00;;;;8318646;28;20685;-69
2022/09/29 06:46:49;;;;;;;85.07;22.10;;;;;10.00;94863.00;;;;8328315;28;20220;-70
2022/09/29 06:51:00;;;;;;;89.97;19.93;;;;;10.00;94874.00;;;;8323346;28;20221;-71
2022/09/29 06:55:12;;;;;;;78.20;19.92;;;;;10.00;94867.00;;;;8325604;28;20311;-71
2022/09/29 06:59:21;;;;;;;69.43;20.53;;;;;10.20;94870.00;;;;8330311;28;20236;-70
2022/09/29 07:03:32;;;;;;;80.75;20.23;;;;;10.20;94873.00;;;;8313823;28;20736;-71
2022/09/29 07:07:51;;;;;;;73.50;19.65;;;;;10.20;94881.00;;;;8319455;28;20256;-69
2022/09/29 07:12:02;;;;;;;69.78;20.40;;;;;10.10;94889.00;;;;8325986;28;20677;-69
2022/09/29 07:16:13;;;;;;;69.10;20.80;;;;;10.20;94881.00;;;;8332084;28;20225;-69
2022/09/29 07:20:16;;;;;;;73.78;22.02;;;;;10.30;94890.00;;;;8330795;28;20231;-70
2022/09/29 07:24:28;;;;;;;61.20;19.10;;;;;10.20;94894.00;;;;8340240;28;20286;-69
2022/09/29 07:28:38;;;;;;;61.30;20.63;;;;;10.20;94896.00;;;;8334532;28;20269;-70
2022/09/29 07:32:47;;;;;;;56.20;20.05;;;;;10.20;94902.00;;;;8332641;28;20749;-70
2022/09/29 07:37:04;;;;;;;49.72;18.00;;;;;10.30;94905.00;;;;8336518;28;20250;-70
2022/09/29 07:41:15;;;;;;;47.83;18.08;;;;;10.40;94905.00;;;;8330980;28;21816;-70
2022/09/29 07:45:24;;;;;;;50.80;18.95;;;;;10.60;94909.00;;;;8334110;28;20226;-69
2022/09/29 07:49:34;;;;;;;38.38;17.77;;;;;10.80;94920.00;;;;8338368;28;20256;-69
2022/09/29 07:53:45;;;;;;;35.83;16.92;;;;;11.00;94924.00;;;;8341533;28;20312;-69
2022/09/29 07:57:56;;;;;;;32.40;16.52;;;;;11.20;94931.00;;;;8333868;28;20213;-69
2022/09/29 08:01:59;;;;;;;33.13;17.30;;;;;11.50;94932.00;;;;8330898;28;20256;-70
2022/09/29 08:06:16;;;;;;;33.20;15.80;;;;;11.60;94927.00;;;;8337308;28;20635;-69
2022/09/29 08:10:27;;;;;;;32.38;15.88;;;;;11.60;94926.00;;;;8339397;28;20264;-69
2022/09/29 08:14:52;;;;;;;33.97;17.20;;;;;11.60;94923.00;;;;8343995;28;20226;-70
2022/09/29 08:19:03;;;;;;;30.95;16.45;;;;;11.60;94935.00;;;;8330223;28;20711;-71
2022/09/29 08:23:13;;;;;;;26.10;16.42;;;;;11.70;94935.00;;;;8337526;28;20602;-68
2022/09/29 08:27:22;;;;;;;27.63;15.98;;;;;11.70;94950.00;;;;8333959;28;20245;-68
2022/09/29 08:31:34;;;;;;;27.15;16.63;;;;;11.60;94957.00;;;;8331984;28;20227;-68
2022/09/29 08:35:37;;;;;;;39.60;17.80;;;;;11.70;94963.00;;;;8335352;28;20717;-70
2022/09/29 08:39:46;;;;;;;31.55;17.33;;;;;11.70;94966.00;;;;8331029;28;20228;-69
2022/09/29 08:44:01;;;;;;;27.20;16.65;;;;;11.90;94975.00;;;;8338597;28;20229;-68
2022/09/29 08:48:28;;;;;;;28.20;16.77;;;;;12.00;94983.00;;;;8324063;28;20224;-68
2022/09/29 08:52:41;;;;;;;26.63;15.88;;;;;12.20;94969.00;;;;8337775;28;20234;-68
2022/09/29 08:56:54;;;;;;;22.05;14.40;;;;;12.30;94964.00;;;;8347245;28;20216;-69
2022/09/29 09:01:17;;;;;;;22.27;13.00;;;;;12.40;94965.00;;;;8344075;28;20235;-69
2022/09/29 09:06:10;;;;;;;17.52;12.00;;;;;12.60;94964.00;;;;8330982;28;20399;-69
2022/09/29 09:10:30;;;;;;;20.00;13.25;;;;;12.80;94974.00;;;;8229462;28;20316;-70
2022/09/29 09:14:55;;;;;;;16.75;11.50;;;;;13.00;94972.00;;;;8221092;28;20234;-70
2022/09/29 09:19:29;;;;;;;18.15;12.75;;;;;13.00;94973.00;;;;8229143;28;20411;-70
2022/09/29 09:23:53;;;;;;;18.00;12.25;;;;;13.10;94969.00;;;;8242821;28;20355;-70
2022/09/29 09:55:01;;;;;;;14.05;9.07;;;;;14.10;94967.00;;;;8329638;28;20228;-70
2022/09/29 09:59:23;;;;;;;13.07;8.20;;;;;14.40;94963.00;;;;8329171;28;20237;-71
2022/09/29 10:03:28;;;;;;;16.00;8.70;;;;;14.70;94966.00;;;;8323064;28;20265;-71
2022/09/29 10:07:33;;;;;;;13.02;9.20;;;;;14.80;94966.00;;;;8350612;28;21011;-71
2022/09/29 10:11:37;;;;;;;16.33;8.73;;;;;15.10;94967.00;;;;8369790;28;20249;-71
2022/09/29 10:15:45;;;;;;;9.57;7.95;;;;;15.40;94975.00;;;;8365678;28;20228;-71
2022/09/29 10:19:57;;;;;;;10.65;7.90;;;;;15.60;94961.00;;;;8364095;28;20224;-72
2022/09/29 10:24:00;;;;;;;8.90;7.18;;;;;15.80;94968.00;;;;8360598;28;20861;-77
2022/09/29 10:28:06;;;;;;;9.68;6.88;;;;;15.80;94968.00;;;;8367923;28;20265;-78
2022/09/29 10:32:13;;;;;;;9.48;8.00;;;;;15.70;94973.00;;;;8369776;28;20674;-77
2022/09/29 10:36:20;;;;;;;10.80;8.10;;;;;15.90;94977.00;;;;8364294;28;20223;-76
2022/09/29 10:40:23;;;;;;;12.43;7.90;;;;;16.10;94975.00;;;;8369801;28;20226;-76
2022/09/29 10:44:33;;;;;;;13.65;7.43;;;;;16.50;94977.00;;;;8368534;28;20231;-75
2022/09/29 10:48:36;;;;;;;11.63;7.68;;;;;16.80;94982.00;;;;8375805;28;20765;-75
2022/09/29 10:52:43;;;;;;;10.07;6.50;;;;;16.80;94983.00;;;;8379016;28;20228;-75
2022/09/29 10:56:48;;;;;;;8.27;7.13;;;;;16.80;94982.00;;;;8377380;28;20284;-76
2022/09/29 11:01:06;;;;;;;7.00;6.20;;;;;16.80;94989.00;;;;8375636;28;20226;-75
2022/09/29 11:05:18;;;;;;;9.88;6.32;;;;;16.90;94990.00;;;;8337532;28;20228;-75
2022/09/29 11:09:35;;;;;;;6.28;5.68;;;;;17.00;94989.00;;;;8335819;28;20220;-76
2022/09/29 11:13:39;;;;;;;11.70;6.03;;;;;17.10;94991.00;;;;8337284;28;20233;-74
2022/09/29 11:17:50;;;;;;;9.05;5.18;;;;;17.10;94987.00;;;;8340095;28;20228;-75
2022/09/29 11:22:31;;;;;;;7.18;4.53;;;;;17.40;94987.00;;;;8330697;28;20232;-75
2022/09/29 11:26:42;;;;;;;6.75;4.53;;;;;17.50;94997.00;;;;8335587;28;20240;-75
2022/09/29 11:31:07;;;;;;;5.88;4.68;;;;;17.50;95003.00;;;;8331417;28;20228;-81
2022/09/29 11:35:27;;;;;;;9.98;5.05;;;;;17.60;95001.00;;;;8338149;28;20310;-74
2022/09/29 11:39:49;;;;;;;4.57;4.15;;;;;17.90;95003.00;;;;8336455;28;20232;-74
2022/09/29 11:43:56;;;;;;;5.13;4.05;;;;;17.90;95006.00;;;;8334060;28;20310;-74
2022/09/29 11:48:26;;;;;;;6.40;4.68;;;;;18.00;95001.00;;;;8335271;28;20229;-74
2022/09/29 11:53:18;;;;;;;8.38;5.20;;;;;18.10;94994.00;;;;8360312;28;20220;-74
2022/09/29 11:58:01;;;;;;;6.15;4.15;;;;;18.10;94998.00;;;;8362888;28;20239;-74
2022/09/29 12:02:38;;;;;;;7.63;4.72;;;;;18.40;94991.00;;;;8364213;28;20232;-73
2022/09/29 12:12:31;;;;;;;9.82;4.30;;;;;18.90;94994.00;;;;8396976;28;20324;-74
2022/09/29 12:17:04;;;;;;;7.95;4.90;;;;;19.10;94999.00;;;;8396416;28;20230;-74
2022/09/29 12:21:40;;;;;;;7.25;5.30;;;;;19.10;94996.00;;;;8395827;28;20560;-78
2022/09/29 12:26:16;;;;;;;7.60;3.20;;;;;19.10;94999.00;;;;8396660;28;20216;-74
2022/09/29 12:30:53;;;;;;;6.90;3.58;;;;;18.90;94998.00;;;;8396343;28;20234;-75
2022/09/29 12:35:32;;;;;;;5.47;3.65;;;;;18.60;95012.00;;;;8396069;28;20569;-74
2022/09/29 12:40:05;;;;;;;4.10;3.20;;;;;18.30;95007.00;;;;8396757;28;20307;-74
2022/09/29 12:44:40;;;;;;;5.35;3.55;;;;;18.30;95002.00;;;;8385840;28;20684;-74
2022/09/29 12:49:22;;;;;;;4.65;3.60;;;;;18.60;95008.00;;;;8394401;28;20271;-75
2022/09/29 12:54:11;;;;;;;6.10;3.30;;;;;18.40;95011.00;;;;8394453;28;20224;-72
2022/09/29 12:58:41;;;;;;;5.03;3.40;;;;;18.40;95010.00;;;;8259831;28;20226;-71
2022/09/29 13:03:29;;;;;;;7.72;2.97;;;;;18.40;95007.00;;;;8390910;28;20227;-72
2022/09/29 13:08:00;;;;;;;6.10;4.28;;;;;18.40;95003.00;;;;8395262;28;20220;-71
2022/09/29 13:12:44;;;;;;;5.07;3.72;;;;;18.40;95002.00;;;;8394498;28;20557;-70
2022/09/29 13:17:13;;;;;;;9.10;3.83;;;;;18.50;95001.00;;;;8392951;28;20254;-70
2022/09/29 13:21:49;;;;;;;3.72;3.15;;;;;18.60;95004.00;;;;8393745;28;20232;-70
2022/09/29 13:26:25;;;;;;;5.13;3.28;;;;;18.70;95003.00;;;;8394163;28;20216;-69
2022/09/29 13:30:58;;;;;;;8.73;4.30;;;;;18.80;95015.00;;;;8381048;28;20597;-70
2022/09/29 13:35:37;;;;;;;4.50;2.67;;;;;19.00;95010.00;;;;8383918;28;20274;-70
2022/09/29 13:40:08;;;;;;;7.22;3.17;;;;;18.80;95010.00;;;;8393817;28;20212;-69
2022/09/29 13:45:04;;;;;;;5.13;2.70;;;;;18.70;95004.00;;;;8394531;28;20231;-70
2022/09/29 13:49:37;;;;;;;4.85;3.17;;;;;18.50;94999.00;;;;8394035;28;20328;-69
2022/09/29 13:53:40;;;;;;;3.70;2.83;;;;;18.40;95016.00;;;;8383842;28;20212;-69
2022/09/29 13:58:22;;;;;;;3.58;2.80;;;;;18.20;95017.00;;;;8392695;28;20617;-70
2022/09/29 14:02:52;;;;;;;7.13;2.70;;;;;18.10;95012.00;;;;8394156;28;20228;-69
2022/09/29 14:07:44;;;;;;;4.88;2.50;;;;;17.80;95014.00;;;;8392564;28;20220;-75
2022/09/29 14:12:15;;;;;;;6.45;2.60;;;;;17.70;95019.00;;;;8258366;28;20266;-74
2022/09/29 14:16:54;;;;;;;3.75;2.80;;;;;17.60;95016.00;;;;8258034;28;20274;-75
2022/09/29 14:21:47;;;;;;;7.40;3.83;;;;;17.50;95023.00;;;;8257519;28;20223;-75
2022/09/29 14:25:53;;;;;;;5.03;2.67;;;;;17.40;95018.00;;;;8258014;28;20616;-69
2022/09/29 14:30:39;;;;;;;3.20;2.95;;;;;17.30;95013.00;;;;8250804;28;20214;-69
2022/09/29 14:35:02;;;;;;;5.35;2.90;;;;;17.30;95024.00;;;;8257496;28;20747;-67
2022/09/29 14:54:42;;;;;;;3.40;2.15;;;;;16.80;95064.00;;;;8390863;28;20660;-67
2022/09/29 14:59:19;;;;;;;1.77;1.67;;;;;16.60;95058.00;;;;8393056;28;20216;-68
2022/09/29 15:03:50;;;;;;;3.17;1.83;;;;;16.40;95064.00;;;;8391938;28;20606;-67
2022/09/29 15:07:56;;;;;;;4.72;2.35;;;;;16.20;95073.00;;;;8392180;28;20530;-67
2022/09/29 15:12:01;;;;;;;7.68;4.22;;;;;16.20;95075.00;;;;8393975;28;20572;-70
2022/09/29 15:16:13;;;;;;;4.80;1.67;;;;;16.10;95073.00;;;;8392868;28;20277;-69
2022/09/29 15:20:51;;;;;;;1.80;1.70;;;;;15.90;95078.00;;;;8393568;28;20533;-70
2022/09/29 15:25:31;;;;;;;3.42;1.65;;;;;15.80;95091.00;;;;8391578;28;20265;-71
2022/09/29 15:29:56;;;;;;;2.17;1.98;;;;;15.80;95090.00;;;;8389440;28;20596;-70
2022/09/29 15:34:29;;;;;;;3.53;1.63;;;;;15.80;95094.00;;;;8395130;28;20226;-70
2022/09/29 15:38:36;;;;;;;1.92;1.75;;;;;15.70;95095.00;;;;8397847;28;20557;-69
2022/09/29 15:43:07;;;;;;;3.70;1.90;;;;;15.60;95094.00;;;;8398395;28;20506;-69
2022/09/29 15:47:45;;;;;;;71.30;31.98;;;;;15.40;95093.00;;;;8398862;28;20607;-70
2022/09/29 15:52:22;;;;;;;12.98;6.45;;;;;15.40;95088.00;;;;8397466;28;20560;-69
2022/09/29 16:01:31;;;;;;;3.85;2.20;;;;;15.20;95100.00;;;;8397634;28;20295;-68
2022/09/29 16:05:57;;;;;;;7.25;1.92;;;;;15.10;95102.00;;;;8393904;28;20251;-68
2022/09/29 16:15:34;;;;;;;7.70;4.90;;;;;15.00;95115.00;;;;8397519;28;20571;-68
2022/09/29 16:20:04;;;;;;;3.08;2.50;;;;;14.90;95114.00;;;;8398130;28;20660;-68
2022/09/29 16:24:52;;;;;;;4.10;2.10;;;;;14.80;95120.00;;;;8382392;28;20250;-68
2022/09/29 16:29:24;;;;;;;2.20;2.05;;;;;14.60;95119.00;;;;8396609;28;20231;-69
2022/09/29 16:33:59;;;;;;;2.30;1.90;;;;;14.30;95117.00;;;;8393608;28;20265;-69
2022/09/29 16:38:34;;;;;;;3.90;2.28;;;;;14.10;95128.00;;;;8395659;28;20223;-68
2022/09/29 16:43:17;;;;;;;4.20;2.38;;;;;13.90;95131.00;;;;8395810;28;20661;-68
2022/09/29 16:47:45;;;;;;;5.68;2.20;;;;;13.60;95120.00;;;;8394578;28;20230;-69
2022/09/29 16:52:25;;;;;;;2.15;2.03;;;;;13.40;95119.00;;;;8396311;28;20223;-69
2022/09/29 16:57:05;;;;;;;4.13;2.15;;;;;13.20;95127.00;;;;8396581;28;20226;-68
2022/09/29 17:01:45;;;;;;;2.08;1.98;;;;;13.10;95123.00;;;;8394727;28;20230;-68
2022/09/29 17:06:19;;;;;;;2.45;2.22;;;;;12.90;95132.00;;;;8395926;28;20223;-68
2022/09/29 17:15:50;;;;;;;6.03;3.95;;;;;12.60;95135.00;;;;8395185;28;20233;-69
2022/09/29 17:20:29;;;;;;;4.80;3.80;;;;;12.50;95139.00;;;;8395717;28;20302;-68
2022/09/29 17:25:04;;;;;;;9.65;5.13;;;;;12.30;95146.00;;;;8395303;28;20306;-69
2022/09/29 17:29:41;;;;;;;9.85;6.00;;;;;12.30;95148.00;;;;8394408;28;20237;-69
2022/09/29 17:34:19;;;;;;;10.55;6.03;;;;;12.20;95158.00;;;;8394583;28;20222;-69
2022/09/29 17:38:55;;;;;;;17.10;8.77;;;;;12.00;95151.00;;;;8394928;28;20609;-69
2022/09/29 17:43:30;;;;;;;16.15;8.43;;;;;11.80;95167.00;;;;8393168;28;20545;-67
2022/09/29 17:47:52;;;;;;;16.95;9.23;;;;;11.80;95166.00;;;;8394856;28;20227;-68
2022/09/29 17:52:30;;;;;;;15.70;8.90;;;;;11.70;95172.00;;;;8394511;28;20681;-68
2022/09/29 17:57:17;;;;;;;12.10;7.88;;;;;11.60;95180.00;;;;8392666;28;20217;-68
2022/09/29 18:01:41;;;;;;;17.23;9.52;;;;;11.60;95183.00;;;;8395559;28;20263;-68
2022/09/29 18:06:21;;;;;;;15.68;8.93;;;;;11.60;95180.00;;;;8394155;28;20244;-68
2022/09/29 18:15:50;;;;;;;14.60;8.77;;;;;11.70;95191.00;;;;8381918;28;20266;-72
2022/09/29 18:20:28;;;;;;;14.40;9.20;;;;;11.70;95196.00;;;;8393993;28;20224;-71
2022/09/29 18:25:04;;;;;;;15.23;9.52;;;;;11.70;95194.00;;;;8386197;28;20322;-72
2022/09/29 18:29:41;;;;;;;16.40;8.73;;;;;11.80;95190.00;;;;8381616;28;20277;-70
2022/09/29 18:34:15;;;;;;;16.30;9.55;;;;;11.70;95201.00;;;;8390924;28;20222;-69
2022/09/29 18:38:53;;;;;;;15.68;9.77;;;;;11.70;95194.00;;;;8394287;28;20276;-69
2022/09/29 18:43:28;;;;;;;14.52;9.10;;;;;11.70;95204.00;;;;8392415;28;20220;-69
2022/09/29 18:48:02;;;;;;;13.63;8.98;;;;;11.70;95210.00;;;;8393953;28;20557;-70
2022/09/29 18:52:41;;;;;;;7.80;6.47;;;;;11.70;95214.00;;;;8393258;28;20525;-69
2022/09/29 18:57:22;;;;;;;10.77;6.72;;;;;11.70;95224.00;;;;8367855;28;20296;-70
2022/09/29 19:01:56;;;;;;;11.65;6.45;;;;;11.60;95224.00;;;;8392793;28;20211;-69
2022/09/29 19:06:34;;;;;;;8.07;5.82;;;;;11.60;95229.00;;;;8393622;28;20306;-69
2022/09/29 19:11:16;;;;;;;8.55;6.38;;;;;11.60;95238.00;;;;8397941;28;20224;-69
2022/09/29 19:15:49;;;;;;;10.23;7.35;;;;;11.60;95233.00;;;;8399840;28;20218;-69
2022/09/29 19:20:24;;;;;;;9.88;6.38;;;;;11.60;95241.00;;;;8392815;28;20228;-70
2022/09/29 19:24:59;;;;;;;7.82;5.05;;;;;11.50;95235.00;;;;8398126;28;20216;-70
2022/09/29 19:29:36;;;;;;;11.50;5.43;;;;;11.40;95242.00;;;;8398983;28;20210;-70
2022/09/29 19:34:15;;;;;;;8.27;5.43;;;;;11.40;95247.00;;;;8397391;28;20213;-70
2022/09/29 19:38:49;;;;;;;8.60;5.53;;;;;11.40;95239.00;;;;8398535;28;20242;-70
2022/09/29 19:43:26;;;;;;;11.80;6.40;;;;;11.30;95240.00;;;;8397462;28;20265;-69
2022/09/29 19:48:00;;;;;;;15.23;8.00;;;;;11.30;95240.00;;;;8393824;28;20227;-70
2022/09/29 19:52:37;;;;;;;11.55;7.40;;;;;11.20;95241.00;;;;8399033;28;20674;-70
2022/09/29 19:57:17;;;;;;;12.52;7.50;;;;;11.20;95242.00;;;;8396764;28;20290;-69
2022/09/29 20:01:28;;;;;;;14.02;6.70;;;;;11.20;95241.00;;;;8395899;28;20617;-70
2022/09/29 20:06:05;;;;;;;12.82;6.97;;;;;11.10;95249.00;;;;8396530;28;20626;-69
2022/09/29 20:15:33;;;;;;;13.50;7.20;;;;;11.00;95269.00;;;;8389587;28;20494;-69
2022/09/29 20:20:10;;;;;;;13.15;7.68;;;;;10.90;95266.00;;;;8397369;28;20216;-69
2022/09/29 20:24:44;;;;;;;16.98;7.43;;;;;10.90;95267.00;;;;8392794;28;20299;-69
2022/09/29 20:29:20;;;;;;;12.32;6.65;;;;;10.90;95280.00;;;;8397272;28;20573;-69
2022/09/29 20:33:58;;;;;;;10.10;6.32;;;;;10.90;95289.00;;;;8395342;28;20223;-70
2022/09/29 20:38:03;;;;;;;11.10;6.22;;;;;11.00;95289.00;;;;8397363;28;20263;-70
2022/09/29 20:42:06;;;;;;;12.13;6.68;;;;;11.10;95297.00;;;;8395931;28;20231;-69
2022/09/29 20:46:12;;;;;;;11.68;6.40;;;;;11.10;95299.00;;;;8396824;28;20224;-70
2022/09/29 20:50:46;;;;;;;13.18;6.95;;;;;11.10;95298.00;;;;8391672;28;20775;-70
2022/09/29 20:55:22;;;;;;;11.45;6.63;;;;;11.10;95307.00;;;;8396082;28;20303;-70
2022/09/29 20:59:25;;;;;;;13.23;7.57;;;;;11.10;95313.00;;;;8396159;28;20231;-69
2022/09/29 21:04:04;;;;;;;13.07;7.50;;;;;11.10;95310.00;;;;8395914;28;20223;-70
2022/09/29 21:08:07;;;;;;;15.43;8.95;;;;;11.10;95312.00;;;;8391692;28;20256;-69
2022/09/29 21:12:41;;;;;;;9.65;6.75;;;;;11.10;95315.00;;;;8395669;28;20565;-69
2022/09/29 21:17:19;;;;;;;15.40;7.50;;;;;11.10;95329.00;;;;8395606;28;20234;-70
2022/09/29 21:21:53;;;;;;;8.60;6.03;;;;;11.10;95342.00;;;;8394844;28;20216;-69
2022/09/29 21:26:04;;;;;;;13.60;7.00;;;;;11.10;95344.00;;;;8393910;28;20650;-70
2022/09/29 21:30:09;;;;;;;14.73;7.65;;;;;11.10;95343.00;;;;8394878;28;20221;-69
2022/09/29 21:34:44;;;;;;;12.48;7.35;;;;;11.10;95349.00;;;;8394734;28;20231;-69
2022/09/29 21:39:18;;;;;;;11.38;6.97;;;;;11.10;95349.00;;;;8395531;28;20219;-69
2022/09/29 21:43:56;;;;;;;14.98;7.60;;;;;11.10;95356.00;;;;8393943;28;20560;-69
2022/09/29 21:48:09;;;;;;;14.68;7.00;;;;;11.10;95355.00;;;;8394365;28;20219;-72
2022/09/29 21:52:14;;;;;;;12.05;6.63;;;;;11.10;95361.00;;;;8394238;28;20229;-69
2022/09/29 21:56:19;;;;;;;14.63;6.97;;;;;11.10;95357.00;;;;8395217;28;20231;-70
2022/09/29 22:00:22;;;;;;;9.88;6.80;;;;;11.10;95357.00;;;;8394912;28;20273;-70
2022/09/29 22:04:29;;;;;;;10.23;6.97;;;;;11.10;95357.00;;;;8393344;28;20224;-70
2022/09/29 22:09:08;;;;;;;13.05;7.43;;;;;11.00;95360.00;;;;8392497;28;20557;-70
2022/09/29 22:14:04;;;;;;;11.95;6.18;;;;;11.00;95361.00;;;;8390128;28;20220;-69
2022/09/29 22:18:07;;;;;;;12.73;6.15;;;;;11.00;95359.00;;;;8393976;28;20227;-70
2022/09/29 22:22:44;;;;;;;11.27;6.97;;;;;11.00;95358.00;;;;8393794;28;20223;-70
2022/09/29 22:26:48;;;;;;;11.93;6.80;;;;;11.10;95353.00;;;;8393611;28;20215;-70
2022/09/29 22:30:51;;;;;;;9.38;6.00;;;;;11.10;95359.00;;;;8395002;28;20226;-69
2022/09/29 22:35:00;;;;;;;9.05;6.45;;;;;11.10;95366.00;;;;8394070;28;20237;-69
2022/09/29 22:39:37;;;;;;;8.95;6.15;;;;;11.10;95360.00;;;;8393528;28;20275;-69
2022/09/29 22:44:18;;;;;;;9.85;6.22;;;;;11.00;95370.00;;;;8397891;28;20223;-69